This is the latest recevied weather packets stored in our database for station/object SQ2CET-13. If no packets are shown the sender has not sent any weather packets the latest 10 day(s).
| Time | Temp. | Humidity | Pressure | Rain* | Wind** | Luminosity | Snow |
|---|---|---|---|---|---|---|---|
| 1777933843 | 9.44° C | 91% | 1013.6 hPa | 0 mm | - | 0 W/m² | - |
| 1777933287 | 10° C | 91% | 1013.7 hPa | 0 mm | - | 0 W/m² | - |
| 1777931474 | 10° C | 91% | 1013.8 hPa | 0 mm | - | 0 W/m² | - |
| 1777929618 | 10° C | 91% | 1013.9 hPa | 0 mm | - | 0 W/m² | - |
| 1777929042 | 10.56° C | 91% | 1014 hPa | 0 mm | - | 0 W/m² | - |
| 1777926673 | 10.56° C | 90% | 1013.8 hPa | 0 mm | - | 0 W/m² | - |
| 1777926035 | 10.56° C | 90% | 1013.7 hPa | 0 mm | - | 0 W/m² | - |
| 1777925458 | 11.11° C | 90% | 1013.9 hPa | 0 mm | - | 0 W/m² | - |
| 1777924243 | 11.11° C | 89% | 1013.8 hPa | 0 mm | - | 0 W/m² | - |
| 1777922451 | 11.67° C | 88% | 1013.8 hPa | 0 mm | - | 0 W/m² | - |
| 1777919434 | 12.78° C | 84% | 1013.6 hPa | 0 mm | - | 1 W/m² | - |
| 1777915832 | 15.56° C | 75% | 1013.1 hPa | 0 mm | - | 25 W/m² | - |
| 1777909239 | 16.67° C | 71% | 1012.9 hPa | 0 mm | - | 72 W/m² | - |
| 1777900260 | 20.56° C | 59% | 1012 hPa | 0 mm | - | 470 W/m² | - |
| 1777897283 | 20° C | 63% | 1012 hPa | 0 mm | - | 632 W/m² | - |
| 1777896058 | 20° C | 64% | 1011.8 hPa | 0 mm | - | 518 W/m² | - |
| 1777895438 | 20° C | 65% | 1012 hPa | 0 mm | - | 284 W/m² | - |
| 1777893622 | 20° C | 65% | 1012 hPa | 0 mm | - | 256 W/m² | - |
| 1777893044 | 20.56° C | 63% | 1011.9 hPa | 0 mm | - | 571 W/m² | - |
| 1777892471 | 19.44° C | 66% | 1011.9 hPa | 0 mm | - | 492 W/m² | - |
| 1777888234 | 18.33° C | 69% | 1012.1 hPa | 0 mm | - | 462 W/m² | - |
| 1777886435 | 19.44° C | 67% | 1011.9 hPa | 0 mm | - | 764 W/m² | - |
| 1777885860 | 18.89° C | 67% | 1011.7 hPa | 0 mm | - | 728 W/m² | - |
| 1777883474 | 18.33° C | 71% | 1011.5 hPa | 0 mm | - | 266 W/m² | - |
| 1777882837 | 18.33° C | 70% | 1011.7 hPa | 0 mm | - | 429 W/m² | - |
* Rain latest hour (hover to see other rain measurements)
** Current wind speed in m/s (hover to see current wind gust speed)